Airfield :
LOGIN :

Register | Disclaimer

   EN    FR    IT 

 










Legend :    VFR   Marginal VFR   IFR   Intensive IFR   Very Intensive IFR
Visi :
Ceiling :
>= 8 km
>= 3000ft
5 to 8 km
1000 to 3000 ft
1500m to 5 km
500 to 1000 ft
800 to 1500m
200 to 500 ft
< 800m
< 200 ft
Symbols :   Thunderstorms  Fog  Heavy snow  Heavy precipitations  Wind > 20 kt
SIGMETs :     Misc.  Thunderstorms  Icing  Turbulence  Mountain Waves  Volcanic Ashes






- Airport Elevation : 179 ft
- IATA code : HEL


EFHK - Helsinki Vantaa

CURRENT METAR :
  • 250650Z 07005KT 030V110 9999 BKN016 M01/M02 Q1013 NOSIG

EXPIRED METARs :
  • 250620Z 07003KT 9999 BKN016 M01/M02 Q1013 NOSIG
  • 250550Z 07005KT 9999 BKN016 M01/M02 Q1013 NOSIG
  • 250520Z 08004KT 9999 BKN017 M01/M02 Q1013 NOSIG
  • 250450Z 08004KT 9999 BKN019 M01/M02 Q1013 NOSIG
  • 250420Z 07004KT 9999 BKN019 M01/M02 Q1013 NOSIG

TAF TAF EFHK
Valid from the 25 at 06:00 until the 26 at 06:00 UTC


250527Z 2506/2606 08004KT 9999 BKN018
BECMG 2509/2511 7000 -RA OVC005
TEMPO 2511/2518 4000 RA OVC003
TEMPO 2518/2521 2000 BR OVC003
BECMG 2519/2521 24010KT
BECMG 2604/2606 9999 SCT020



MET'MAP, your aeronautical weather chart ! - Copyright ORBIFLY December 2007 - Disclaimer

ORBIFLY MET'MAP TEAM :

Programming & Development : Alexandra Zaïnal
Concept & original design : Baudouin d'Aumeries
Assistance for programming : Marc-Olivier Méhu
Technical & hardware support : Manuel Goepfert

Contact : metmap@orbifly.com




SOURCES & CREDITS :

   NOAA